PLVO2: Washita River nr Pauls Valley, OK

Data processed at Fri Dec 08 2017 23:47


All information presented herein is the property of the government of the United States of America and may be revised or deleted at any time without prior notice.
Dissemination of this information without the expressed written consent of the Public Affairs Office, Tulsa District U.S. Army Corps of Engineers is strictly prohibited.
These data are gathered electronically and, as presented, have not undergone any form of quality control. These data are not guaranteed to be valid or correct.
Go to home page.
Go to station list.

Upstream stations:

Downstream station:
Previous Day
Next Day
Current Day
    
SHEF ID:       PLVO2     Washita River near Pauls Valley
STATION TYPE:  

               PRECIP     STAGE  RIV-FLOW  BAT-LOAD
                   in        ft       cfs      volt
              Ccp-Rev   Ccp-Rev   Ccp-Rev   Ccp-Rev
(US/Central)
12/06 00:00      0.00      5.42       420     12.65
12/06 01:00      0.00      5.40       413     12.65
12/06 02:00      0.00      5.42       420     12.65
12/06 03:00      0.00      5.40       413     12.57
12/06 04:00      0.00      5.41       416     12.57
12/06 05:00      0.00      5.40       413     12.57
12/06 06:00      0.00      5.40       413     12.49
12/06 07:00      0.00      5.40       413     12.41
12/06 08:00      0.00      5.41       416     12.41
12/06 09:00      0.00      5.41       416     12.49
12/06 10:00      0.00      5.43       423     12.89
12/06 11:00      0.00      5.40       413     13.29
12/06 12:00      0.00      5.42       420     13.29
12/06 13:00      0.00      5.40       413     13.29
12/06 14:00      0.00      5.42       420     13.21
12/06 15:00      0.00      5.41       416     13.05
12/06 16:00      0.00      5.42       420     12.97
12/06 17:00      0.00      5.40       413     12.89
12/06 18:00      0.00      5.41       416     12.89
12/06 19:00      0.00      5.41       416     12.81
12/06 20:00      0.00      5.40       413     12.73
12/06 21:00      0.00      5.40       413     12.73
12/06 22:00      0.00      5.40       413     12.65
12/06 23:00      0.00      5.37       403     12.65